createdAt,value
2018-05-24T00:00:28.953Z,3.20
2018-05-24T00:03:32.334Z,3.20
2018-05-24T00:06:35.740Z,3.50
2018-05-24T00:09:39.125Z,3.30
2018-05-24T00:12:42.512Z,3.57
2018-05-24T00:15:45.896Z,2.97
2018-05-24T00:18:49.332Z,3.37
2018-05-24T00:21:54.253Z,2.90
2018-05-24T00:24:57.552Z,3.23
2018-05-24T00:28:00.944Z,3.10
2018-05-24T00:31:04.282Z,3.40
2018-05-24T00:34:08.416Z,3.63
2018-05-24T00:37:11.752Z,3.60
2018-05-24T00:40:15.095Z,3.40
2018-05-24T00:43:18.446Z,3.30
2018-05-24T00:46:21.832Z,3.80
2018-05-24T00:49:25.196Z,3.53
2018-05-24T00:52:28.540Z,3.77
2018-05-24T00:55:42.749Z,4.10
2018-05-24T00:58:46.149Z,4.93
2018-05-24T01:01:49.465Z,5.03
2018-05-24T01:04:52.794Z,5.00
2018-05-24T01:07:56.171Z,5.30
2018-05-24T01:10:59.568Z,4.73
2018-05-24T01:14:02.979Z,5.07
2018-05-24T01:17:06.326Z,5.40
2018-05-24T01:20:09.726Z,5.97
2018-05-24T01:23:13.177Z,5.33
2018-05-24T01:26:17.282Z,5.47
2018-05-24T01:29:20.617Z,5.20
2018-05-24T01:32:23.925Z,5.40
2018-05-24T01:35:28.037Z,5.83
2018-05-24T01:38:31.395Z,5.03
2018-05-24T01:41:34.757Z,5.27
2018-05-24T01:44:38.177Z,5.10
2018-05-24T01:47:41.561Z,6.07
2018-05-24T01:50:44.946Z,6.00
2018-05-24T01:53:48.323Z,6.00
2018-05-24T01:56:51.661Z,6.20
2018-05-24T01:59:55.015Z,5.80
2018-05-24T02:02:58.363Z,5.90
2018-05-24T02:06:02.505Z,5.77
2018-05-24T02:09:06.616Z,7.20
2018-05-24T02:12:10.802Z,6.33
2018-05-24T02:15:14.110Z,5.67
2018-05-24T02:18:17.454Z,6.17
2018-05-24T02:21:20.781Z,6.20
2018-05-24T02:24:24.187Z,5.47
2018-05-24T02:27:27.498Z,5.63
2018-05-24T02:30:32.339Z,6.03
2018-05-24T02:33:35.725Z,6.47
2018-05-24T02:36:39.083Z,6.57
2018-05-24T02:39:42.399Z,6.47
2018-05-24T02:42:45.795Z,6.23
2018-05-24T02:45:49.197Z,7.00
2018-05-24T02:48:52.510Z,6.63
2018-05-24T02:51:56.715Z,7.10
2018-05-24T02:55:00.077Z,6.10
2018-05-24T02:58:03.475Z,6.03
2018-05-24T03:01:06.867Z,5.93
2018-05-24T03:04:10.171Z,5.43
2018-05-24T03:07:13.561Z,5.80
2018-05-24T03:10:16.893Z,5.50
2018-05-24T03:13:20.294Z,6.03
2018-05-24T03:16:23.696Z,6.07
2018-05-24T03:19:27.181Z,6.50
2018-05-24T03:22:30.639Z,6.10
2018-05-24T03:25:33.994Z,6.33
2018-05-24T03:28:37.304Z,7.00
2018-05-24T03:31:41.479Z,7.67
2018-05-24T03:34:44.974Z,7.33
2018-05-24T03:37:48.344Z,7.57
2018-05-24T03:40:51.701Z,6.63
2018-05-24T03:43:55.825Z,6.50
2018-05-24T03:46:59.146Z,6.20
2018-05-24T03:50:02.484Z,5.83
2018-05-24T03:53:05.802Z,5.90
2018-05-24T03:56:09.149Z,5.53
2018-05-24T04:03:40.558Z,7.20
2018-05-24T04:06:43.955Z,7.67
2018-05-24T04:09:47.353Z,7.50
2018-05-24T04:12:50.744Z,6.43
2018-05-24T04:15:54.159Z,7.93
2018-05-24T04:18:57.473Z,7.90
2018-05-24T04:22:00.797Z,8.57
2018-05-24T04:25:04.132Z,7.60
2018-05-24T04:28:07.534Z,7.40
2018-05-24T04:31:10.928Z,7.17
2018-05-24T04:34:14.339Z,7.20
2018-05-24T04:37:17.673Z,7.47
2018-05-24T04:40:21.834Z,7.43
2018-05-24T04:43:25.158Z,7.10
2018-05-24T04:46:29.963Z,7.77
2018-05-24T04:49:33.339Z,7.37
2018-05-24T04:52:36.759Z,6.83
2018-05-24T04:55:40.088Z,6.13
2018-05-24T04:58:44.176Z,6.10
2018-05-24T05:01:47.501Z,4.93
2018-05-24T05:04:51.604Z,5.63
2018-05-24T05:07:54.924Z,5.63
2018-05-24T05:10:58.386Z,4.70
2018-05-24T05:14:01.720Z,4.87
2018-05-24T05:17:05.830Z,4.50
2018-05-24T05:20:09.918Z,4.73
2018-05-24T05:23:13.356Z,4.50
2018-05-24T05:26:16.591Z,4.13
2018-05-24T05:29:19.888Z,3.57
2018-05-24T05:32:23.290Z,3.57
2018-05-24T05:35:26.725Z,3.47
2018-05-24T05:38:30.909Z,3.13
2018-05-24T05:41:34.221Z,2.97
2018-05-24T05:44:38.416Z,2.80
2018-05-24T05:47:41.816Z,3.07
2018-05-24T05:50:45.197Z,3.23
2018-05-24T05:53:48.547Z,3.83
2018-05-24T05:56:52.669Z,2.90
2018-05-24T05:59:56.025Z,3.10
2018-05-24T06:02:59.349Z,2.60
2018-05-24T06:06:03.429Z,2.30
2018-05-24T06:09:08.269Z,2.23
2018-05-24T06:12:11.654Z,2.37
2018-05-24T06:15:14.974Z,2.33
2018-05-24T06:18:18.444Z,2.07
2018-05-24T06:21:22.354Z,2.20
2018-05-24T06:24:26.113Z,2.30
2018-05-24T06:27:29.592Z,2.33
2018-05-24T06:30:34.125Z,2.20
2018-05-24T06:33:37.632Z,2.37
2018-05-24T06:36:41.762Z,2.27
2018-05-24T06:39:45.089Z,1.93
2018-05-24T06:42:48.706Z,2.20
2018-05-24T06:45:52.104Z,2.20
2018-05-24T06:48:55.455Z,2.27
2018-05-24T06:51:58.770Z,1.90
2018-05-24T06:55:02.113Z,1.80
2018-05-24T06:58:05.434Z,2.17
2018-05-24T07:01:09.513Z,2.23
2018-05-24T07:04:13.617Z,2.23
2018-05-24T07:07:16.974Z,2.23
2018-05-24T07:10:20.293Z,1.90
2018-05-24T07:13:23.657Z,2.10
2018-05-24T07:16:26.984Z,2.33
2018-05-24T07:19:30.328Z,2.10
2018-05-24T07:22:34.423Z,2.23
2018-05-24T07:25:38.643Z,2.20
2018-05-24T07:28:41.972Z,2.13
2018-05-24T07:31:45.326Z,2.10
2018-05-24T07:34:48.643Z,2.10
2018-05-24T07:37:52.119Z,2.30
2018-05-24T07:40:55.364Z,2.33
2018-05-24T07:43:58.830Z,2.33
2018-05-24T07:47:03.029Z,2.20
2018-05-24T07:50:06.453Z,2.20
2018-05-24T07:53:10.531Z,2.53
2018-05-24T07:56:13.823Z,2.70
2018-05-24T07:59:17.179Z,2.47
2018-05-24T08:02:20.525Z,2.37
2018-05-24T08:05:23.810Z,2.40
2018-05-24T08:08:27.149Z,2.40
2018-05-24T08:11:30.486Z,2.23
2018-05-24T08:14:33.839Z,2.53
2018-05-24T08:17:37.211Z,2.47
2018-05-24T08:20:40.610Z,2.80
2018-05-24T08:23:43.897Z,2.60
2018-05-24T08:26:47.543Z,3.17
2018-05-24T08:29:51.620Z,2.40
2018-05-24T08:32:54.994Z,3.23
2018-05-24T08:35:58.308Z,2.93
2018-05-24T08:39:01.658Z,3.17
2018-05-24T08:42:04.983Z,3.10
2018-05-24T08:45:08.336Z,3.07
2018-05-24T08:48:12.522Z,2.83
2018-05-24T08:51:15.920Z,2.70
2018-05-24T08:54:19.370Z,3.00
2018-05-24T08:57:22.704Z,3.10
2018-05-24T09:00:26.042Z,3.10
2018-05-24T09:03:29.517Z,2.83
2018-05-24T09:06:32.833Z,2.60
2018-05-24T09:09:36.146Z,3.00
2018-05-24T09:12:39.513Z,3.00
2018-05-24T09:15:42.902Z,3.20
2018-05-24T09:18:46.251Z,2.67
2018-05-24T09:21:49.683Z,3.03
2018-05-24T09:24:53.810Z,2.70
2018-05-24T09:27:57.165Z,2.87
2018-05-24T09:31:00.478Z,3.00
2018-05-24T09:34:03.818Z,2.90
2018-05-24T09:37:08.039Z,3.07
2018-05-24T09:40:12.225Z,2.43
2018-05-24T09:43:15.599Z,2.50
2018-05-24T09:46:19.023Z,3.10
2018-05-24T09:49:22.358Z,3.10
2018-05-24T09:52:26.448Z,2.90
2018-05-24T09:55:32.718Z,3.13
2018-05-24T09:58:36.085Z,3.37
2018-05-24T10:01:39.401Z,3.13
2018-05-24T10:04:42.767Z,3.10
2018-05-24T10:07:46.069Z,3.20
2018-05-24T10:10:49.415Z,3.57
2018-05-24T10:13:53.551Z,3.47
2018-05-24T10:16:56.880Z,3.60
2018-05-24T10:20:00.393Z,3.40
2018-05-24T10:23:03.777Z,3.67
2018-05-24T10:26:07.089Z,3.93
2018-05-24T10:29:10.421Z,3.30
2018-05-24T10:32:14.613Z,3.83
2018-05-24T10:35:17.996Z,3.57
2018-05-24T10:38:21.348Z,4.20
2018-05-24T10:41:24.719Z,4.13
2018-05-24T10:44:28.906Z,4.27
2018-05-24T10:47:32.304Z,4.17
2018-05-24T10:50:35.684Z,4.20
2018-05-24T10:53:38.988Z,4.20
2018-05-24T10:56:42.331Z,3.80
2018-05-24T10:59:46.480Z,3.87
2018-05-24T11:02:49.907Z,3.83
2018-05-24T11:05:53.409Z,3.50
2018-05-24T11:08:56.802Z,3.40
2018-05-24T11:12:00.199Z,3.40
2018-05-24T11:15:03.597Z,3.67
2018-05-24T11:18:06.994Z,3.43
2018-05-24T11:21:10.450Z,3.50
2018-05-24T11:24:13.789Z,2.80
2018-05-24T11:27:17.181Z,2.20
2018-05-24T11:30:20.599Z,2.57
2018-05-24T11:33:23.914Z,2.37
2018-05-24T11:36:28.014Z,2.50
2018-05-24T11:39:31.308Z,2.43
2018-05-24T11:42:35.500Z,2.87
2018-05-24T11:45:38.821Z,3.70
2018-05-24T11:48:42.150Z,2.60
2018-05-24T11:51:45.505Z,2.87
2018-05-24T11:54:48.882Z,3.00
2018-05-24T11:57:52.223Z,2.80
2018-05-24T12:00:56.390Z,2.70
2018-05-24T12:04:00.434Z,3.03
2018-05-24T12:07:03.861Z,2.10
2018-05-24T12:10:07.135Z,2.30
2018-05-24T12:13:10.522Z,2.03
2018-05-24T12:16:13.868Z,2.00
2018-05-24T12:19:17.233Z,2.30
2018-05-24T12:22:21.404Z,2.40
2018-05-24T12:25:24.803Z,2.63
2018-05-24T12:28:28.234Z,2.60
2018-05-24T12:31:31.583Z,2.40
2018-05-24T12:34:34.915Z,1.90
2018-05-24T12:37:38.295Z,1.93
2018-05-24T12:40:41.633Z,2.10
2018-05-24T12:43:45.698Z,1.97
2018-05-24T12:46:49.037Z,2.47
2018-05-24T12:49:53.120Z,2.30
2018-05-24T12:52:56.471Z,2.73
2018-05-24T12:55:59.915Z,1.97
2018-05-24T12:59:03.234Z,2.00
2018-05-24T13:02:06.570Z,2.10
2018-05-24T13:05:09.892Z,2.07
2018-05-24T13:08:13.318Z,2.20
2018-05-24T13:11:16.751Z,2.20
2018-05-24T13:14:20.059Z,2.20
2018-05-24T13:17:23.365Z,1.90
2018-05-24T13:20:26.731Z,1.83
2018-05-24T13:23:30.102Z,2.50
2018-05-24T13:26:33.509Z,1.90
2018-05-24T13:29:37.699Z,1.87
2018-05-24T13:32:41.035Z,2.30
2018-05-24T13:35:45.121Z,2.20
2018-05-24T13:38:48.478Z,1.83
2018-05-24T13:41:51.898Z,2.20
2018-05-24T13:44:55.307Z,1.90
2018-05-24T13:47:58.624Z,2.17
2018-05-24T13:51:01.973Z,1.90
2018-05-24T13:54:05.304Z,1.93
2018-05-24T13:57:08.680Z,2.23
2018-05-24T14:00:12.088Z,2.30
2018-05-24T14:03:15.490Z,2.20
2018-05-24T14:06:18.806Z,2.20
2018-05-24T14:09:23.038Z,1.90
2018-05-24T14:12:26.395Z,2.03
2018-05-24T14:15:29.744Z,2.10
2018-05-24T14:18:33.085Z,2.00
2018-05-24T14:21:36.445Z,2.10
2018-05-24T14:24:39.769Z,2.00
2018-05-24T14:27:43.165Z,2.20
2018-05-24T14:30:46.498Z,1.83
2018-05-24T14:33:50.692Z,1.93
2018-05-24T14:36:53.996Z,1.90
2018-05-24T14:39:57.331Z,1.80
2018-05-24T14:43:00.675Z,2.10
2018-05-24T14:46:04.082Z,2.07
2018-05-24T14:49:08.186Z,2.20
2018-05-24T14:52:11.524Z,1.90
2018-05-24T14:55:15.695Z,2.20
2018-05-24T14:58:19.024Z,2.17
2018-05-24T15:01:23.225Z,2.20
2018-05-24T15:04:26.568Z,2.03
2018-05-24T15:07:30.013Z,2.07
2018-05-24T15:10:33.317Z,1.70
2018-05-24T15:13:50.220Z,1.77
2018-05-24T15:16:53.618Z,1.80
2018-05-24T15:19:56.968Z,1.90
2018-05-24T15:23:00.405Z,1.97
2018-05-24T15:26:03.762Z,1.70
2018-05-24T15:29:07.099Z,2.03
2018-05-24T15:32:10.436Z,1.60
2018-05-24T15:35:14.526Z,1.90
2018-05-24T15:38:17.862Z,2.17
2018-05-24T15:41:21.322Z,2.27
2018-05-24T15:44:24.641Z,1.80
2018-05-24T15:47:28.814Z,1.87
2018-05-24T15:50:32.142Z,1.90
2018-05-24T15:53:36.261Z,1.90
2018-05-24T15:56:40.348Z,1.83
2018-05-24T15:59:43.749Z,2.20
2018-05-24T16:02:47.137Z,2.03
2018-05-24T16:05:50.474Z,1.97
2018-05-24T16:08:54.600Z,2.07
2018-05-24T16:11:57.917Z,2.40
2018-05-24T16:15:01.257Z,1.70
2018-05-24T16:18:04.586Z,2.27
2018-05-24T16:21:07.940Z,2.30
2018-05-24T16:24:11.342Z,2.37
2018-05-24T16:27:14.704Z,2.20
2018-05-24T16:30:18.077Z,2.27
2018-05-24T16:33:21.463Z,2.00
2018-05-24T16:36:25.656Z,2.00
2018-05-24T16:39:28.969Z,2.00
2018-05-24T16:42:33.145Z,1.90
2018-05-24T16:45:36.570Z,2.17
2018-05-24T16:48:39.970Z,2.30
2018-05-24T16:51:44.065Z,2.00
2018-05-24T16:54:47.388Z,2.67
2018-05-24T16:57:51.586Z,2.20
2018-05-24T17:00:54.969Z,2.10
2018-05-24T17:03:58.362Z,2.50
2018-05-24T17:07:01.686Z,2.30
2018-05-24T17:10:05.012Z,1.93
2018-05-24T17:13:08.468Z,1.80
2018-05-24T17:16:11.877Z,2.07
2018-05-24T17:19:15.245Z,2.30
2018-05-24T17:22:18.655Z,2.30
2018-05-24T17:25:21.973Z,2.17
2018-05-24T17:28:26.214Z,2.13
2018-05-24T17:31:29.579Z,2.17
2018-05-24T17:34:33.001Z,2.60
2018-05-24T17:37:37.173Z,2.37
2018-05-24T17:40:40.573Z,2.80
2018-05-24T17:43:44.797Z,2.60
2018-05-24T17:46:49.733Z,2.77
2018-05-24T17:49:53.106Z,2.70
2018-05-24T17:52:56.447Z,2.00
2018-05-24T17:56:00.637Z,2.57
2018-05-24T17:59:03.972Z,3.23
2018-05-24T18:02:07.313Z,2.73
2018-05-24T18:05:10.773Z,2.70
2018-05-24T18:08:14.121Z,2.20
2018-05-24T18:11:17.476Z,2.40
2018-05-24T18:14:20.821Z,2.27
2018-05-24T18:17:24.154Z,2.20
2018-05-24T18:20:27.674Z,2.07
2018-05-24T18:23:31.014Z,1.90
2018-05-24T18:26:34.360Z,2.67
2018-05-24T18:29:37.654Z,2.13
2018-05-24T18:32:41.019Z,2.40
2018-05-24T18:35:45.112Z,2.20
2018-05-24T18:38:48.474Z,2.07
2018-05-24T18:41:51.909Z,1.73
2018-05-24T18:44:55.298Z,2.20
2018-05-24T18:47:58.634Z,2.10
2018-05-24T18:51:02.708Z,2.60
2018-05-24T18:54:06.046Z,2.37
2018-05-24T18:57:10.217Z,1.90
2018-05-24T19:00:13.497Z,2.03
2018-05-24T19:03:16.945Z,2.10
2018-05-24T19:06:20.303Z,1.97
2018-05-24T19:09:23.642Z,2.33
2018-05-24T19:12:27.028Z,1.90
2018-05-24T19:15:31.873Z,2.13
2018-05-24T19:18:35.203Z,2.40
2018-05-24T19:21:38.647Z,2.30
2018-05-24T19:24:41.990Z,2.13
2018-05-24T19:27:46.174Z,2.50
2018-05-24T19:30:49.561Z,2.00
2018-05-24T19:33:52.965Z,2.27
2018-05-24T19:36:56.302Z,2.50
2018-05-24T19:40:00.412Z,2.70
2018-05-24T19:43:04.517Z,2.70
2018-05-24T19:46:07.841Z,2.70
2018-05-24T19:49:11.155Z,2.57
2018-05-24T19:52:14.512Z,2.80
2018-05-24T19:55:17.882Z,2.87
2018-05-24T19:58:21.210Z,3.10
2018-05-24T20:01:24.553Z,3.17
2018-05-24T20:04:27.892Z,2.93
2018-05-24T20:07:32.546Z,3.00
2018-05-24T20:10:36.842Z,2.80
2018-05-24T20:13:40.189Z,3.63
2018-05-24T20:16:43.605Z,3.03
2018-05-24T20:19:47.037Z,3.07
2018-05-24T20:22:50.534Z,2.97
2018-05-24T20:25:54.854Z,3.37
2018-05-24T20:28:58.261Z,2.93
2018-05-24T20:32:01.659Z,3.20
2018-05-24T20:35:04.971Z,3.10
2018-05-24T20:38:08.550Z,4.03
2018-05-24T20:41:11.945Z,3.37
2018-05-24T20:44:15.319Z,3.10
2018-05-24T20:47:19.044Z,3.27
2018-05-24T20:50:22.369Z,3.47
2018-05-24T20:53:25.706Z,3.03
2018-05-24T20:56:29.240Z,3.80
2018-05-24T20:59:32.763Z,3.83
2018-05-24T21:02:36.259Z,3.50
2018-05-24T21:05:39.687Z,4.43
2018-05-24T21:08:43.103Z,3.70
2018-05-24T21:11:46.540Z,3.70
2018-05-24T21:14:49.886Z,3.80
2018-05-24T21:17:53.222Z,3.77
2018-05-24T21:20:56.551Z,3.47
2018-05-24T21:23:59.900Z,3.53
2018-05-24T21:27:03.239Z,3.50
2018-05-24T21:30:06.626Z,3.90
2018-05-24T21:33:10.011Z,3.80
2018-05-24T21:36:13.431Z,4.10
2018-05-24T21:39:16.806Z,3.83
2018-05-24T21:42:20.141Z,3.60
2018-05-24T21:45:24.225Z,3.50
2018-05-24T21:48:27.617Z,3.60
2018-05-24T21:51:30.934Z,3.63
2018-05-24T21:54:34.272Z,3.50
2018-05-24T21:57:37.619Z,3.50
2018-05-24T22:00:46.409Z,4.20
2018-05-24T22:03:50.538Z,3.90
2018-05-24T22:06:53.950Z,3.40
2018-05-24T22:09:57.337Z,3.93
2018-05-24T22:13:00.738Z,4.27
2018-05-24T22:16:04.142Z,3.80
2018-05-24T22:19:07.530Z,4.20
2018-05-24T22:22:10.865Z,3.43
2018-05-24T22:25:14.951Z,4.33
2018-05-24T22:28:18.288Z,4.23
2018-05-24T22:31:21.605Z,4.43
2018-05-24T22:34:25.042Z,3.70
2018-05-24T22:37:28.395Z,4.10
2018-05-24T22:40:31.842Z,3.90
2018-05-24T22:43:35.223Z,3.73
2018-05-24T22:46:38.590Z,3.70
2018-05-24T22:49:41.948Z,3.33
2018-05-24T22:52:46.015Z,4.33
2018-05-24T22:55:49.352Z,3.83
2018-05-24T22:58:53.541Z,4.27
2018-05-24T23:01:56.933Z,4.20
2018-05-24T23:05:00.247Z,3.90
2018-05-24T23:08:04.959Z,4.00
2018-05-24T23:11:08.261Z,4.07
2018-05-24T23:14:11.657Z,3.90
2018-05-24T23:17:14.990Z,4.00
2018-05-24T23:20:19.065Z,3.87
2018-05-24T23:23:22.422Z,3.43
2018-05-24T23:26:25.750Z,3.77
2018-05-24T23:29:29.172Z,4.10
2018-05-24T23:32:32.505Z,4.13
2018-05-24T23:35:35.802Z,3.80
2018-05-24T23:38:39.154Z,4.30
2018-05-24T23:41:42.474Z,4.13
2018-05-24T23:44:46.572Z,4.23
2018-05-24T23:47:49.936Z,4.60
2018-05-24T23:50:53.340Z,4.47
2018-05-24T23:53:56.660Z,3.83
2018-05-24T23:56:59.978Z,4.53
